Time;durP1;ratioP1;P1;durP2;ratioP2;P2;SDS_P1;SDS_P2;PMS_P1;PMS_P2;Temp;Humidity;BMP_temperature;BMP_pressure;BME280_temperature;BME280_humidity;BME280_pressure;Samples;Min_cycle;Max_cycle;Signal;HPM_P1;HPM_P2
2022/11/22 00:01:21;;;;;;;;;;;11.00;99.90;;;;;;5097161;28;19950;-24
2022/11/22 00:03:48;;;;;;;;;;;11.00;99.90;;;;;;5095945;28;19920;-24
2022/11/22 00:06:13;;;;;;;;;;;11.00;99.90;;;;;;5078852;28;20447;-24
2022/11/22 00:08:39;;;;;;;;;;;10.90;99.90;;;;;;5095534;28;19912;-25
2022/11/22 00:11:04;;;;;;;;;;;10.90;99.90;;;;;;5096873;28;19914;-24
2022/11/22 00:13:30;;;;;;;;;;;10.90;99.90;;;;;;5095857;28;20380;-24
2022/11/22 00:15:59;;;;;;;;;;;11.00;99.90;;;;;;5096910;28;19908;-24
2022/11/22 00:18:25;;;;;;;;;;;11.00;99.90;;;;;;5095724;28;19912;-24
2022/11/22 00:20:50;;;;;;;;;;;11.00;99.90;;;;;;5095494;28;19966;-24
2022/11/22 00:23:16;;;;;;;;;;;11.00;99.90;;;;;;5097471;28;19908;-24
2022/11/22 00:25:41;;;;;;;;;;;11.00;99.90;;;;;;5096652;28;20277;-24
2022/11/22 00:28:07;;;;;;;;;;;11.00;99.90;;;;;;5095050;28;19912;-24
2022/11/22 00:30:33;;;;;;;;;;;11.00;99.90;;;;;;5078050;28;20334;-24
2022/11/22 00:32:59;;;;;;;;;;;11.00;99.90;;;;;;5096410;28;20042;-24
2022/11/22 00:35:24;;;;;;;;;;;11.00;99.90;;;;;;5095012;28;19916;-24
2022/11/22 00:37:50;;;;;;;;;;;11.00;99.90;;;;;;5095074;28;20392;-24
2022/11/22 00:40:15;;;;;;;;;;;11.00;99.90;;;;;;5095137;28;19908;-24
2022/11/22 00:42:41;;;;;;;;;;;11.00;99.90;;;;;;5096146;28;19908;-24
2022/11/22 00:45:06;;;;;;;;;;;11.00;99.90;;;;;;5095255;28;19912;-24
2022/11/22 00:47:32;;;;;;;;;;;11.00;99.90;;;;;;5096533;28;19947;-24
2022/11/22 00:49:58;;;;;;;;;;;11.00;99.90;;;;;;5094531;28;19913;-25
2022/11/22 00:52:24;;;;;;;;;;;11.00;99.90;;;;;;5095164;28;19915;-23
2022/11/22 00:54:49;;;;;;;;;;;11.00;99.90;;;;;;5094495;28;20369;-24
2022/11/22 00:57:15;;;;;;;;;;;11.00;99.90;;;;;;5095703;28;19908;-24
2022/11/22 00:59:40;;;;;;;;;;;11.00;99.90;;;;;;5096277;28;19923;-24
2022/11/22 01:02:06;;;;;;;;;;;11.00;99.90;;;;;;5076497;28;20372;-24
2022/11/22 01:04:31;;;;;;;;;;;11.00;99.90;;;;;;5094736;28;19908;-24
2022/11/22 01:06:56;;;;;;;;;;;11.00;99.90;;;;;;5094480;28;19912;-24
2022/11/22 01:09:22;;;;;;;;;;;10.90;99.90;;;;;;5093726;28;19953;-24
2022/11/22 01:11:48;;;;;;;;;;;10.90;99.90;;;;;;5094001;28;19961;-24
2022/11/22 01:14:14;;;;;;;;;;;10.90;99.90;;;;;;5058790;28;20330;-24
2022/11/22 01:16:40;;;;;;;;;;;10.90;99.90;;;;;;5094258;28;19961;-24
2022/11/22 01:19:05;;;;;;;;;;;11.00;99.90;;;;;;5093158;28;19962;-24
2022/11/22 01:21:31;;;;;;;;;;;11.00;99.90;;;;;;5094048;28;19908;-24
2022/11/22 01:23:56;;;;;;;;;;;10.90;99.90;;;;;;5093480;28;19916;-24
2022/11/22 01:26:22;;;;;;;;;;;10.90;99.90;;;;;;5094340;28;20003;-24
2022/11/22 01:28:47;;;;;;;;;;;10.90;99.90;;;;;;5093277;28;19938;-24
2022/11/22 01:31:13;;;;;;;;;;;10.90;99.90;;;;;;5093640;28;19908;-24
2022/11/22 01:33:39;;;;;;;;;;;10.90;99.90;;;;;;5092947;28;19969;-24
2022/11/22 01:36:04;;;;;;;;;;;10.90;99.90;;;;;;5093914;28;19908;-24
2022/11/22 01:38:30;;;;;;;;;;;10.90;99.90;;;;;;5075037;28;20426;-24
2022/11/22 01:40:55;;;;;;;;;;;10.90;99.90;;;;;;5093770;28;19912;-24
2022/11/22 01:43:23;;;;;;;;;;;10.90;99.90;;;;;;5092940;28;19916;-24
2022/11/22 01:45:52;;;;;;;;;;;10.90;99.90;;;;;;5093060;28;19916;-24
2022/11/22 01:48:28;;;;;;;;;;;10.90;99.90;;;;;;5092956;28;19919;-24
2022/11/22 01:50:56;;;;;;;;;;;10.90;99.90;;;;;;5093846;28;19909;-24
2022/11/22 01:53:26;;;;;;;;;;;10.90;99.90;;;;;;5093287;28;19912;-24
2022/11/22 01:55:52;;;;;;;;;;;10.90;99.90;;;;;;5093976;28;19915;-24
2022/11/22 01:58:18;;;;;;;;;;;10.90;99.90;;;;;;5093832;28;20012;-24
2022/11/22 02:00:44;;;;;;;;;;;10.90;99.90;;;;;;5094213;28;19912;-24
2022/11/22 02:03:11;;;;;;;;;;;10.90;99.90;;;;;;5093959;28;20416;-24
2022/11/22 02:05:37;;;;;;;;;;;10.90;99.90;;;;;;5093721;28;19965;-24
2022/11/22 02:08:09;;;;;;;;;;;10.90;99.90;;;;;;5093156;28;19908;-24
2022/11/22 02:10:36;;;;;;;;;;;10.90;99.90;;;;;;5094709;28;19915;-24
2022/11/22 02:13:02;;;;;;;;;;;10.90;99.90;;;;;;5094120;28;19908;-24
2022/11/22 02:15:28;;;;;;;;;;;10.90;99.90;;;;;;5093270;28;20369;-24
2022/11/22 02:17:55;;;;;;;;;;;10.90;99.90;;;;;;5094627;28;19919;-23
2022/11/22 02:20:21;;;;;;;;;;;10.90;99.90;;;;;;5092082;28;19961;-24
2022/11/22 02:22:55;;;;;;;;;;;10.90;99.90;;;;;;5093137;28;19912;-24
2022/11/22 02:25:24;;;;;;;;;;;10.90;99.90;;;;;;5093056;28;19951;-24
2022/11/22 02:27:49;;;;;;;;;;;10.90;99.90;;;;;;5092492;28;19957;-24
2022/11/22 02:30:15;;;;;;;;;;;10.90;99.90;;;;;;5093586;28;19912;-25
2022/11/22 02:32:41;;;;;;;;;;;10.90;99.90;;;;;;5093280;28;19998;-24
2022/11/22 02:35:16;;;;;;;;;;;10.90;99.90;;;;;;5092058;28;19970;-24
2022/11/22 02:37:42;;;;;;;;;;;10.90;99.90;;;;;;5093044;28;20284;-24
2022/11/22 02:40:12;;;;;;;;;;;10.80;99.90;;;;;;5092299;28;19920;-24
2022/11/22 02:42:37;;;;;;;;;;;10.80;99.90;;;;;;5092497;28;20305;-23
2022/11/22 02:45:03;;;;;;;;;;;10.90;99.90;;;;;;5092811;28;19908;-24
2022/11/22 02:47:28;;;;;;;;;;;10.90;99.90;;;;;;5091913;28;20006;-24
2022/11/22 02:49:54;;;;;;;;;;;10.80;99.90;;;;;;5093547;28;19934;-24
2022/11/22 02:52:19;;;;;;;;;;;10.80;99.90;;;;;;5074186;28;20277;-24
2022/11/22 02:54:45;;;;;;;;;;;10.80;99.90;;;;;;5094674;28;20003;-23
2022/11/22 02:57:11;;;;;;;;;;;10.80;99.90;;;;;;5092833;28;19914;-24
2022/11/22 02:59:37;;;;;;;;;;;10.80;99.90;;;;;;5092025;28;19916;-24
2022/11/22 03:02:02;;;;;;;;;;;10.80;99.90;;;;;;5092545;28;20297;-24
2022/11/22 03:04:28;;;;;;;;;;;10.80;99.90;;;;;;5092933;28;20281;-24
2022/11/22 03:06:54;;;;;;;;;;;10.80;99.90;;;;;;5091978;28;19908;-23
2022/11/22 03:09:20;;;;;;;;;;;10.80;99.90;;;;;;5092224;28;19908;-24
2022/11/22 03:11:46;;;;;;;;;;;10.80;99.90;;;;;;5092961;28;19916;-24
2022/11/22 03:14:13;;;;;;;;;;;10.80;99.90;;;;;;5093120;28;19916;-24
2022/11/22 03:16:38;;;;;;;;;;;10.80;99.90;;;;;;5092812;28;20007;-24
2022/11/22 03:19:04;;;;;;;;;;;10.80;99.90;;;;;;5094669;28;20003;-24
2022/11/22 03:21:29;;;;;;;;;;;10.80;99.90;;;;;;5097118;28;19919;-23
2022/11/22 03:23:55;;;;;;;;;;;10.80;99.90;;;;;;5098443;28;19915;-24
2022/11/22 03:26:20;;;;;;;;;;;10.80;99.90;;;;;;5079183;28;19908;-24
2022/11/22 03:28:46;;;;;;;;;;;10.80;99.90;;;;;;5094759;28;19912;-24
2022/11/22 03:31:11;;;;;;;;;;;10.80;99.90;;;;;;5097036;28;19915;-23
2022/11/22 03:33:37;;;;;;;;;;;10.80;99.90;;;;;;5095531;28;19955;-24
2022/11/22 03:36:02;;;;;;;;;;;10.80;99.90;;;;;;5097272;28;19981;-24
2022/11/22 03:38:28;;;;;;;;;;;10.80;99.90;;;;;;5095884;28;19920;-24
2022/11/22 03:40:54;;;;;;;;;;;10.80;99.90;;;;;;5096895;28;19918;-24
2022/11/22 03:43:20;;;;;;;;;;;10.80;99.90;;;;;;5078400;28;20282;-23
2022/11/22 03:45:46;;;;;;;;;;;10.80;99.90;;;;;;5097283;28;19968;-24
2022/11/22 03:48:12;;;;;;;;;;;10.80;99.90;;;;;;5096903;28;20374;-24
2022/11/22 03:50:37;;;;;;;;;;;10.80;99.90;;;;;;5096111;28;19920;-24
2022/11/22 03:53:03;;;;;;;;;;;10.80;99.90;;;;;;5096187;28;19915;-24
2022/11/22 03:55:28;;;;;;;;;;;10.80;99.90;;;;;;5095542;28;19919;-24
2022/11/22 03:57:54;;;;;;;;;;;10.80;99.90;;;;;;5096332;28;19923;-23
2022/11/22 04:00:19;;;;;;;;;;;10.80;99.90;;;;;;5095563;28;19912;-24
2022/11/22 04:02:45;;;;;;;;;;;10.80;99.90;;;;;;5095373;28;19916;-24
2022/11/22 04:05:10;;;;;;;;;;;10.80;99.90;;;;;;5095208;28;20373;-24
2022/11/22 04:07:36;;;;;;;;;;;10.80;99.90;;;;;;5095183;28;20010;-24
2022/11/22 04:10:03;;;;;;;;;;;10.80;99.90;;;;;;5096471;28;19912;-24
2022/11/22 04:12:29;;;;;;;;;;;10.80;99.90;;;;;;5096393;28;19950;-24
2022/11/22 04:15:07;;;;;;;;;;;10.80;99.90;;;;;;5094963;28;19908;-23
2022/11/22 04:17:39;;;;;;;;;;;10.80;99.90;;;;;;5095147;28;20421;-24
2022/11/22 04:22:57;;;;;;;;;;;10.80;99.90;;;;;;5095011;28;19914;-24
2022/11/22 04:25:23;;;;;;;;;;;10.80;99.90;;;;;;5095562;28;19926;-24
2022/11/22 04:27:49;;;;;;;;;;;10.80;99.90;;;;;;5078217;28;20246;-24
2022/11/22 04:30:14;;;;;;;;;;;10.80;99.90;;;;;;5093062;28;19908;-24
2022/11/22 04:32:46;;;;;;;;;;;10.80;99.90;;;;;;5096226;28;19925;-24
2022/11/22 04:35:15;;;;;;;;;;;10.80;99.90;;;;;;5095619;28;19999;-24
2022/11/22 04:37:41;;;;;;;;;;;10.80;99.90;;;;;;5095040;28;19908;-23
2022/11/22 04:40:07;;;;;;;;;;;10.80;99.90;;;;;;5094866;28;19916;-24
2022/11/22 04:45:17;;;;;;;;;;;10.80;99.90;;;;;;5094994;28;19946;-24
2022/11/22 04:47:58;;;;;;;;;;;10.80;99.90;;;;;;5094364;28;20330;-24
2022/11/22 04:53:08;;;;;;;;;;;10.70;99.90;;;;;;5095514;28;19966;-23
2022/11/22 04:55:33;;;;;;;;;;;10.80;99.90;;;;;;5094227;28;19908;-24
2022/11/22 04:57:59;;;;;;;;;;;10.70;99.90;;;;;;5094828;28;20369;-24
2022/11/22 05:00:26;;;;;;;;;;;10.80;99.90;;;;;;5094149;28;19914;-24
2022/11/22 05:02:52;;;;;;;;;;;10.80;99.90;;;;;;5094929;28;19942;-24
2022/11/22 05:05:17;;;;;;;;;;;10.70;99.90;;;;;;5077323;28;20056;-23
2022/11/22 05:07:43;;;;;;;;;;;10.70;99.90;;;;;;5093789;28;20394;-23
2022/11/22 05:10:09;;;;;;;;;;;10.70;99.90;;;;;;5093297;28;19912;-24
2022/11/22 05:12:34;;;;;;;;;;;10.70;99.90;;;;;;5093639;28;19908;-24
2022/11/22 05:15:00;;;;;;;;;;;10.70;99.90;;;;;;5093945;28;19953;-24
2022/11/22 05:17:25;;;;;;;;;;;10.70;99.90;;;;;;5093733;28;19908;-24
2022/11/22 05:19:51;;;;;;;;;;;10.70;99.90;;;;;;5093803;28;20253;-24
2022/11/22 05:22:16;;;;;;;;;;;10.70;99.90;;;;;;5094532;28;19914;-23
2022/11/22 05:24:42;;;;;;;;;;;10.70;99.90;;;;;;5093519;28;20381;-24
2022/11/22 05:27:07;;;;;;;;;;;10.70;99.90;;;;;;5093902;28;19914;-24
2022/11/22 05:29:33;;;;;;;;;;;10.70;99.90;;;;;;5093041;28;19915;-24
2022/11/22 05:31:58;;;;;;;;;;;10.70;99.90;;;;;;5094789;28;19930;-24
2022/11/22 05:34:24;;;;;;;;;;;10.70;99.90;;;;;;5093501;28;19923;-24
2022/11/22 05:36:49;;;;;;;;;;;10.70;99.90;;;;;;5093519;28;19918;-24
2022/11/22 05:39:15;;;;;;;;;;;10.70;99.90;;;;;;5092944;28;19920;-24
2022/11/22 05:41:54;;;;;;;;;;;10.70;99.90;;;;;;5091680;28;19908;-24
2022/11/22 05:44:20;;;;;;;;;;;10.70;99.90;;;;;;5094654;28;19930;-24
2022/11/22 05:46:46;;;;;;;;;;;10.70;99.90;;;;;;5095242;28;19912;-24
2022/11/22 05:49:11;;;;;;;;;;;10.70;99.90;;;;;;5092867;28;19977;-24
2022/11/22 05:51:37;;;;;;;;;;;10.70;99.90;;;;;;5093835;28;19908;-23
2022/11/22 05:54:02;;;;;;;;;;;10.70;99.90;;;;;;5092720;28;19915;-24
2022/11/22 05:56:28;;;;;;;;;;;10.70;99.90;;;;;;5094027;28;19908;-23
2022/11/22 05:58:53;;;;;;;;;;;10.70;99.90;;;;;;5092375;28;19919;-24
2022/11/22 06:01:20;;;;;;;;;;;10.70;99.90;;;;;;5094606;28;19961;-24
2022/11/22 06:03:46;;;;;;;;;;;10.70;99.90;;;;;;5094047;28;19977;-24
2022/11/22 06:06:12;;;;;;;;;;;10.70;99.90;;;;;;5092624;28;20198;-24
2022/11/22 06:08:39;;;;;;;;;;;10.70;99.90;;;;;;5092087;28;19948;-24
2022/11/22 06:11:11;;;;;;;;;;;10.70;99.90;;;;;;5092384;28;20395;-24
2022/11/22 06:13:38;;;;;;;;;;;10.70;99.90;;;;;;5093474;28;19912;-23
2022/11/22 06:16:04;;;;;;;;;;;10.70;99.90;;;;;;5094548;28;20334;-24
2022/11/22 06:18:30;;;;;;;;;;;10.70;99.90;;;;;;5092042;28;19912;-23
2022/11/22 06:20:58;;;;;;;;;;;10.70;99.90;;;;;;5094144;28;19919;-23
2022/11/22 06:23:24;;;;;;;;;;;10.60;99.90;;;;;;5093883;28;19999;-24
2022/11/22 06:25:59;;;;;;;;;;;10.70;99.90;;;;;;5093024;28;19963;-24
2022/11/22 06:28:25;;;;;;;;;;;10.70;99.90;;;;;;5091358;28;19909;-23
2022/11/22 06:30:51;;;;;;;;;;;10.70;99.90;;;;;;5091869;28;19953;-24
2022/11/22 06:33:16;;;;;;;;;;;10.70;99.90;;;;;;5091928;28;20003;-23
2022/11/22 06:35:42;;;;;;;;;;;10.70;99.90;;;;;;5093525;28;19913;-24
2022/11/22 06:38:07;;;;;;;;;;;10.70;99.90;;;;;;5091742;28;20278;-24
2022/11/22 06:40:33;;;;;;;;;;;10.70;99.90;;;;;;5092965;28;19912;-23
2022/11/22 06:42:58;;;;;;;;;;;10.70;99.90;;;;;;5092639;28;19912;-23
2022/11/22 06:45:24;;;;;;;;;;;10.70;99.90;;;;;;5092835;28;20357;-24
2022/11/22 06:47:49;;;;;;;;;;;10.70;99.90;;;;;;5092292;28;20007;-24
2022/11/22 06:50:15;;;;;;;;;;;10.70;99.90;;;;;;5092356;28;19915;-23
2022/11/22 06:52:40;;;;;;;;;;;10.60;99.90;;;;;;5092557;28;20372;-23
2022/11/22 06:55:06;;;;;;;;;;;10.60;99.90;;;;;;5092087;28;20027;-23
2022/11/22 06:57:32;;;;;;;;;;;10.60;99.90;;;;;;5092117;28;19954;-23
2022/11/22 06:59:57;;;;;;;;;;;10.60;99.90;;;;;;5091780;28;19995;-24
2022/11/22 07:02:23;;;;;;;;;;;10.60;99.90;;;;;;5073728;28;20289;-23
2022/11/22 07:04:48;;;;;;;;;;;10.70;99.90;;;;;;5091506;28;19912;-24
2022/11/22 07:07:14;;;;;;;;;;;10.60;99.90;;;;;;5091698;28;19916;-23
2022/11/22 07:09:39;;;;;;;;;;;10.60;99.90;;;;;;5091526;28;19913;-24
2022/11/22 07:12:05;;;;;;;;;;;10.60;99.90;;;;;;5092212;28;19912;-24
2022/11/22 07:14:30;;;;;;;;;;;10.60;99.90;;;;;;5092145;28;19912;-24
2022/11/22 07:16:56;;;;;;;;;;;10.60;99.90;;;;;;5092629;28;19908;-24
2022/11/22 07:19:21;;;;;;;;;;;10.60;99.90;;;;;;5091037;28;19919;-24
2022/11/22 07:21:48;;;;;;;;;;;10.60;99.90;;;;;;5091573;28;19912;-24
2022/11/22 07:24:14;;;;;;;;;;;10.60;99.90;;;;;;5092052;28;20049;-24
2022/11/22 07:26:39;;;;;;;;;;;10.60;99.90;;;;;;5092253;28;20421;-24
2022/11/22 07:29:05;;;;;;;;;;;10.60;99.90;;;;;;5091339;28;19908;-23
2022/11/22 07:31:30;;;;;;;;;;;10.60;99.90;;;;;;5091723;28;19989;-24
2022/11/22 07:33:59;;;;;;;;;;;10.60;99.90;;;;;;5091735;28;19918;-24
2022/11/22 07:36:28;;;;;;;;;;;10.60;99.90;;;;;;5091981;28;19943;-24
2022/11/22 07:38:53;;;;;;;;;;;10.60;99.90;;;;;;5091983;28;19912;-24
2022/11/22 07:41:20;;;;;;;;;;;10.60;99.90;;;;;;5092251;28;19908;-24
2022/11/22 07:43:46;;;;;;;;;;;10.60;99.90;;;;;;5092301;28;19915;-23
2022/11/22 07:46:20;;;;;;;;;;;10.60;99.90;;;;;;5091915;28;19916;-24
2022/11/22 07:48:46;;;;;;;;;;;10.60;99.90;;;;;;5091177;28;19908;-24
2022/11/22 07:51:12;;;;;;;;;;;10.60;99.90;;;;;;5073136;28;19954;-24
2022/11/22 07:53:37;;;;;;;;;;;10.60;99.90;;;;;;5073556;28;19963;-24
2022/11/22 07:56:03;;;;;;;;;;;10.60;99.90;;;;;;5091619;28;19915;-24
2022/11/22 07:58:29;;;;;;;;;;;10.60;99.90;;;;;;5091412;28;19916;-24
2022/11/22 08:00:55;;;;;;;;;;;10.60;99.90;;;;;;5091256;28;19954;-24
2022/11/22 08:03:20;;;;;;;;;;;10.60;99.90;;;;;;5130100;22;19924;-26
2022/11/22 08:05:46;;;;;;;;;;;10.60;99.90;;;;;;5094264;28;19912;-27
2022/11/22 08:08:11;;;;;;;;;;;10.60;99.90;;;;;;5094507;28;19908;-27
2022/11/22 08:10:37;;;;;;;;;;;10.60;99.90;;;;;;5077058;28;19908;-26
2022/11/22 08:13:04;;;;;;;;;;;10.50;99.90;;;;;;5096407;28;19912;-27
2022/11/22 08:15:30;;;;;;;;;;;10.50;99.90;;;;;;5112592;28;19908;-27
2022/11/22 08:17:57;;;;;;;;;;;10.50;99.90;;;;;;5113715;28;19909;-26
2022/11/22 08:20:23;;;;;;;;;;;10.50;99.90;;;;;;5114076;28;19976;-27
2022/11/22 08:22:49;;;;;;;;;;;10.50;99.90;;;;;;5096752;28;20375;-27
2022/11/22 08:25:14;;;;;;;;;;;10.60;99.90;;;;;;5094773;28;19908;-26
2022/11/22 08:27:41;;;;;;;;;;;10.60;99.90;;;;;;5094691;28;20422;-26
2022/11/22 08:30:07;;;;;;;;;;;10.50;99.90;;;;;;5094235;28;20292;-26
2022/11/22 08:32:32;;;;;;;;;;;10.60;99.90;;;;;;5094576;28;19908;-26
2022/11/22 08:34:58;;;;;;;;;;;10.60;99.90;;;;;;5094210;28;19998;-26
2022/11/22 08:37:23;;;;;;;;;;;10.50;99.90;;;;;;5094031;28;20368;-27
2022/11/22 08:39:49;;;;;;;;;;;10.60;99.90;;;;;;5093471;28;19959;-26
2022/11/22 08:42:14;;;;;;;;;;;10.60;99.90;;;;;;5094001;28;19918;-26
2022/11/22 08:44:40;;;;;;;;;;;10.60;99.90;;;;;;5094291;28;20266;-27
2022/11/22 08:47:05;;;;;;;;;;;10.50;99.90;;;;;;5104991;28;19938;-26
2022/11/22 08:49:31;;;;;;;;;;;10.50;99.90;;;;;;5093251;28;20002;-27
2022/11/22 08:51:56;;;;;;;;;;;10.50;99.90;;;;;;5093869;28;19944;-27
2022/11/22 08:54:22;;;;;;;;;;;10.60;99.90;;;;;;5093577;28;19908;-27
2022/11/22 08:56:47;;;;;;;;;;;10.60;99.90;;;;;;5093809;28;20380;-26
2022/11/22 08:59:13;;;;;;;;;;;10.60;99.90;;;;;;5093186;28;19927;-27
2022/11/22 09:01:38;;;;;;;;;;;10.60;99.90;;;;;;5093741;28;19998;-27
2022/11/22 09:04:04;;;;;;;;;;;10.50;99.90;;;;;;5093391;28;20414;-26
2022/11/22 09:06:30;;;;;;;;;;;10.60;99.90;;;;;;5093537;28;19909;-26
2022/11/22 09:08:55;;;;;;;;;;;10.60;99.90;;;;;;5092793;28;20296;-27
2022/11/22 09:11:21;;;;;;;;;;;10.60;99.90;;;;;;5093515;28;20314;-26
2022/11/22 09:13:46;;;;;;;;;;;10.60;99.90;;;;;;5093133;28;19916;-27
2022/11/22 09:16:16;;;;;;;;;;;10.50;99.90;;;;;;5092923;28;19916;-26
2022/11/22 09:18:42;;;;;;;;;;;10.50;99.90;;;;;;5093111;28;20005;-26
2022/11/22 09:21:14;;;;;;;;;;;10.50;99.90;;;;;;5093497;28;19943;-27
2022/11/22 09:23:40;;;;;;;;;;;10.50;99.90;;;;;;5093149;28;20510;-27
2022/11/22 09:26:10;;;;;;;;;;;10.50;99.90;;;;;;5093186;28;19908;-26
2022/11/22 09:28:35;;;;;;;;;;;10.60;99.90;;;;;;5074376;28;19954;-27
2022/11/22 09:31:08;;;;;;;;;;;10.60;99.90;;;;;;5092980;28;19909;-27
2022/11/22 09:33:35;;;;;;;;;;;10.60;99.90;;;;;;5092833;28;19934;-26
2022/11/22 09:36:01;;;;;;;;;;;10.60;99.90;;;;;;5092811;28;19912;-26
2022/11/22 09:38:27;;;;;;;;;;;10.60;99.90;;;;;;5092107;28;19963;-27
2022/11/22 09:40:53;;;;;;;;;;;10.60;99.90;;;;;;5092731;28;19912;-26
2022/11/22 09:43:24;;;;;;;;;;;10.60;99.90;;;;;;5093014;28;19919;-26
2022/11/22 09:45:59;;;;;;;;;;;10.60;99.90;;;;;;5092777;28;19908;-27
2022/11/22 09:48:27;;;;;;;;;;;10.60;99.90;;;;;;5092104;28;19951;-27
2022/11/22 09:51:14;;;;;;;;;;;10.60;99.90;;;;;;5092434;28;19954;-26
2022/11/22 09:53:42;;;;;;;;;;;10.60;99.90;;;;;;5092371;28;20028;-26
2022/11/22 09:56:11;;;;;;;;;;;10.60;99.90;;;;;;5092499;28;19909;-26
2022/11/22 09:58:39;;;;;;;;;;;10.60;99.90;;;;;;5091998;28;20380;-26
2022/11/22 10:01:12;;;;;;;;;;;10.60;99.90;;;;;;5092461;28;19966;-26
2022/11/22 10:03:37;;;;;;;;;;;10.60;99.90;;;;;;5092392;28;19938;-26
2022/11/22 10:06:05;;;;;;;;;;;10.60;99.90;;;;;;5092433;28;20381;-27
2022/11/22 10:08:51;;;;;;;;;;;10.60;99.90;;;;;;5091822;28;20387;-26
2022/11/22 10:11:23;;;;;;;;;;;10.60;99.90;;;;;;5092654;28;19908;-26
2022/11/22 10:13:50;;;;;;;;;;;10.50;99.90;;;;;;5092163;28;20426;-26
2022/11/22 10:16:28;;;;;;;;;;;10.40;99.90;;;;;;5092122;28;19908;-26
2022/11/22 10:19:05;;;;;;;;;;;10.30;99.90;;;;;;5091576;28;19916;-26
2022/11/22 10:21:31;;;;;;;;;;;10.30;99.90;;;;;;5092130;28;19919;-26
2022/11/22 10:23:56;;;;;;;;;;;10.40;99.90;;;;;;5073541;28;19912;-26
2022/11/22 10:26:32;;;;;;;;;;;10.40;99.90;;;;;;5091810;28;19912;-26
2022/11/22 10:28:58;;;;;;;;;;;10.40;99.90;;;;;;5091169;28;19946;-27
2022/11/22 10:31:26;;;;;;;;;;;10.40;99.90;;;;;;5091819;28;20373;-26
2022/11/22 10:34:01;;;;;;;;;;;10.40;99.90;;;;;;5091828;28;19935;-26
2022/11/22 10:36:45;;;;;;;;;;;10.40;99.90;;;;;;5091618;28;20381;-26
2022/11/22 10:39:30;;;;;;;;;;;10.40;99.90;;;;;;5091212;28;19937;-26
2022/11/22 10:42:04;;;;;;;;;;;10.50;99.90;;;;;;5091654;28;19909;-26
2022/11/22 10:44:30;;;;;;;;;;;10.50;99.90;;;;;;5091694;28;19916;-26
2022/11/22 10:46:58;;;;;;;;;;;10.50;99.90;;;;;;5091580;28;19908;-27
2022/11/22 10:49:40;;;;;;;;;;;10.50;99.90;;;;;;5091246;28;19943;-27
2022/11/22 10:52:14;;;;;;;;;;;10.50;99.90;;;;;;5091537;28;19942;-26
2022/11/22 10:54:45;;;;;;;;;;;10.50;99.90;;;;;;5091606;28;20003;-26
2022/11/22 10:57:10;;;;;;;;;;;10.50;99.90;;;;;;5091603;28;19909;-26
2022/11/22 10:59:54;;;;;;;;;;;10.50;99.90;;;;;;5090878;28;19927;-27
2022/11/22 11:02:38;;;;;;;;;;;10.50;99.90;;;;;;5091345;28;19952;-26
2022/11/22 11:05:05;;;;;;;;;;;10.50;99.90;;;;;;5091617;28;19943;-26
2022/11/22 11:07:31;;;;;;;;;;;10.50;99.90;;;;;;5091340;28;19915;-26
2022/11/22 11:09:58;;;;;;;;;;;10.50;99.90;;;;;;5090697;28;19915;-26
2022/11/22 11:12:44;;;;;;;;;;;10.40;99.90;;;;;;5091385;28;19908;-26
2022/11/22 11:15:17;;;;;;;;;;;10.20;99.90;;;;;;5073423;28;19908;-26
2022/11/22 11:17:43;;;;;;;;;;;10.20;99.90;;;;;;5091360;28;19908;-26
2022/11/22 11:20:18;;;;;;;;;;;10.20;99.90;;;;;;5090669;28;19916;-26
2022/11/22 11:22:44;;;;;;;;;;;10.30;99.90;;;;;;5091290;28;19937;-26
2022/11/22 11:25:29;;;;;;;;;;;10.30;99.90;;;;;;5091485;28;20418;-26
2022/11/22 11:28:00;;;;;;;;;;;10.30;99.90;;;;;;5091118;28;19918;-26
2022/11/22 11:30:25;;;;;;;;;;;10.40;99.90;;;;;;5091274;28;19908;-26
2022/11/22 11:32:52;;;;;;;;;;;10.40;99.90;;;;;;5091038;28;19919;-26
2022/11/22 11:35:19;;;;;;;;;;;10.40;99.90;;;;;;5091442;28;19908;-26
2022/11/22 11:37:45;;;;;;;;;;;10.40;99.90;;;;;;5091203;28;19934;-26
2022/11/22 11:40:30;;;;;;;;;;;10.40;99.90;;;;;;5094606;28;19916;-26
2022/11/22 11:43:28;;;;;;;;;;;10.50;99.90;;;;;;5095290;28;20527;-27
2022/11/22 11:45:53;;;;;;;;;;;10.50;99.90;;;;;;5022242;28;19965;-26
2022/11/22 11:48:26;;;;;;;;;;;10.50;99.90;;;;;;5094530;28;19912;-26
2022/11/22 11:51:04;;;;;;;;;;;10.50;99.90;;;;;;5094930;28;19934;-26
2022/11/22 11:53:29;;;;;;;;;;;10.50;99.90;;;;;;5094989;28;19908;-26
2022/11/22 11:55:55;;;;;;;;;;;10.50;99.90;;;;;;5094678;28;20448;-26
2022/11/22 11:58:22;;;;;;;;;;;10.50;99.90;;;;;;5094168;28;19919;-27
2022/11/22 12:00:48;;;;;;;;;;;10.50;99.90;;;;;;5094618;28;19908;-27
2022/11/22 12:03:15;;;;;;;;;;;10.50;99.90;;;;;;5094611;28;20025;-27
2022/11/22 12:05:41;;;;;;;;;;;10.60;99.90;;;;;;5094547;28;19912;-27
2022/11/22 12:08:25;;;;;;;;;;;10.60;99.90;;;;;;5093893;28;19924;-27
2022/11/22 12:11:00;;;;;;;;;;;10.60;99.90;;;;;;5094849;28;19916;-27
2022/11/22 12:13:35;;;;;;;;;;;10.60;99.90;;;;;;5094578;28;19908;-27
2022/11/22 12:16:08;;;;;;;;;;;10.60;99.90;;;;;;5094500;28;20376;-27
2022/11/22 12:18:51;;;;;;;;;;;10.60;99.90;;;;;;5093964;28;19912;-26
2022/11/22 12:21:38;;;;;;;;;;;10.60;99.90;;;;;;5094372;28;19924;-26
2022/11/22 12:24:11;;;;;;;;;;;10.60;99.90;;;;;;5094778;28;20265;-27
2022/11/22 12:26:37;;;;;;;;;;;10.60;99.90;;;;;;5094366;28;19926;-27
2022/11/22 12:29:03;;;;;;;;;;;10.60;99.90;;;;;;5093752;28;20342;-27
2022/11/22 12:31:52;;;;;;;;;;;10.60;99.90;;;;;;5094373;28;19998;-26
2022/11/22 12:34:28;;;;;;;;;;;10.60;99.90;;;;;;5094209;28;19919;-27
2022/11/22 12:36:56;;;;;;;;;;;10.60;99.90;;;;;;5094688;28;20201;-26
2022/11/22 12:39:25;;;;;;;;;;;10.60;99.90;;;;;;5093750;28;19919;-26
2022/11/22 12:41:55;;;;;;;;;;;10.60;99.90;;;;;;5107435;28;19915;-26
2022/11/22 12:44:21;;;;;;;;;;;10.60;99.90;;;;;;5111695;28;19974;-26
2022/11/22 12:46:49;;;;;;;;;;;10.60;99.90;;;;;;5111609;28;19912;-26
2022/11/22 12:49:33;;;;;;;;;;;10.70;99.90;;;;;;5098569;28;19908;-27
2022/11/22 12:52:19;;;;;;;;;;;10.60;99.90;;;;;;5093649;28;20373;-26
2022/11/22 12:54:58;;;;;;;;;;;10.60;99.90;;;;;;5076381;28;19919;-26
2022/11/22 12:57:36;;;;;;;;;;;10.70;99.90;;;;;;5093965;28;19908;-26
2022/11/22 13:00:04;;;;;;;;;;;10.70;99.90;;;;;;5093397;28;19912;-26
2022/11/22 13:02:33;;;;;;;;;;;10.70;99.90;;;;;;5093476;28;19916;-27
2022/11/22 13:05:02;;;;;;;;;;;10.60;99.90;;;;;;5093463;28;20006;-26
2022/11/22 13:07:46;;;;;;;;;;;10.60;99.90;;;;;;5093369;28;19916;-27
2022/11/22 13:10:23;;;;;;;;;;;10.70;99.90;;;;;;5093103;28;19919;-26
2022/11/22 13:12:49;;;;;;;;;;;10.70;99.90;;;;;;5093321;28;20356;-27
2022/11/22 13:15:17;;;;;;;;;;;10.70;99.90;;;;;;5093387;28;19912;-27
2022/11/22 13:17:43;;;;;;;;;;;10.70;99.90;;;;;;5093057;28;19908;-27
2022/11/22 13:20:24;;;;;;;;;;;10.60;99.90;;;;;;5092776;28;19946;-27
2022/11/22 13:23:09;;;;;;;;;;;10.70;99.90;;;;;;5093101;28;19908;-27
2022/11/22 13:25:53;;;;;;;;;;;10.70;99.90;;;;;;5093011;28;19923;-27
2022/11/22 13:28:21;;;;;;;;;;;10.70;99.90;;;;;;5092471;28;19931;-27
2022/11/22 13:31:06;;;;;;;;;;;10.70;99.90;;;;;;5092998;28;19957;-26
2022/11/22 13:33:32;;;;;;;;;;;10.70;99.90;;;;;;5092593;28;19912;-27
2022/11/22 13:36:16;;;;;;;;;;;10.70;99.90;;;;;;5093021;28;19916;-27
2022/11/22 13:38:46;;;;;;;;;;;10.70;99.90;;;;;;5092405;28;19922;-27
2022/11/22 13:41:26;;;;;;;;;;;10.70;99.90;;;;;;5093296;28;19916;-26
2022/11/22 13:44:14;;;;;;;;;;;10.60;99.90;;;;;;5092539;28;19912;-26
2022/11/22 13:46:51;;;;;;;;;;;10.70;99.90;;;;;;5092860;28;19999;-27
2022/11/22 13:49:35;;;;;;;;;;;10.60;99.90;;;;;;5092153;28;19918;-26
2022/11/22 13:52:04;;;;;;;;;;;10.70;99.90;;;;;;5092685;28;19912;-27
2022/11/22 13:54:38;;;;;;;;;;;10.60;99.90;;;;;;5092503;28;20261;-27
2022/11/22 13:57:22;;;;;;;;;;;10.60;99.90;;;;;;5092705;28;19953;-26
2022/11/22 14:00:07;;;;;;;;;;;10.60;99.90;;;;;;5092140;28;19947;-27
2022/11/22 14:04:59;;;;;;;;;;;10.60;99.90;;;;;;5129385;22;20333;-24
2022/11/22 14:07:31;;;;;;;;;;;10.60;99.90;;;;;;5112090;28;19907;-24
2022/11/22 14:09:58;;;;;;;;;;;10.60;99.90;;;;;;5113983;28;20372;-24
2022/11/22 14:12:42;;;;;;;;;;;10.60;99.90;;;;;;5114346;28;19992;-24
2022/11/22 14:15:19;;;;;;;;;;;10.60;99.90;;;;;;5093089;28;20364;-24
2022/11/22 14:17:56;;;;;;;;;;;10.70;99.90;;;;;;5093336;28;20284;-23
2022/11/22 14:20:40;;;;;;;;;;;10.70;99.90;;;;;;5093422;28;19923;-24
2022/11/22 14:23:09;;;;;;;;;;;10.60;99.90;;;;;;5094583;28;19930;-24
2022/11/22 14:25:54;;;;;;;;;;;10.70;99.90;;;;;;5094421;28;19961;-24
2022/11/22 14:28:31;;;;;;;;;;;10.60;99.90;;;;;;5092978;28;19918;-24
2022/11/22 14:30:57;;;;;;;;;;;10.60;99.90;;;;;;5095090;28;19922;-24
2022/11/22 14:33:24;;;;;;;;;;;10.60;99.90;;;;;;5093586;28;19912;-24
2022/11/22 14:36:05;;;;;;;;;;;10.60;99.90;;;;;;5094074;28;19912;-24